createdAt,value
2018-05-26T00:00:21.473Z,1006.13
2018-05-26T00:01:21.492Z,1006.13
2018-05-26T00:02:21.512Z,1006.16
2018-05-26T00:03:21.542Z,1006.13
2018-05-26T00:04:21.553Z,1006.16
2018-05-26T00:05:21.581Z,1006.15
2018-05-26T00:06:21.601Z,1006.15
2018-05-26T00:07:21.623Z,1006.17
2018-05-26T00:08:21.658Z,1006.10
2018-05-26T00:09:21.663Z,1006.10
2018-05-26T00:10:21.684Z,1006.12
2018-05-26T00:11:21.699Z,1006.09
2018-05-26T00:12:21.721Z,1006.08
2018-05-26T00:13:21.744Z,1006.08
2018-05-26T00:14:21.773Z,1006.07
2018-05-26T00:15:21.788Z,1006.05
2018-05-26T00:16:21.812Z,1006.08
2018-05-26T00:17:21.828Z,1006.09
2018-05-26T00:18:21.850Z,1006.06
2018-05-26T00:19:21.879Z,1006.07
2018-05-26T00:20:21.892Z,1006.04
2018-05-26T00:21:21.915Z,1006.02
2018-05-26T00:22:21.941Z,1005.99
2018-05-26T00:23:21.958Z,1006.02
2018-05-26T00:24:21.975Z,1005.97
2018-05-26T00:25:21.992Z,1005.97
2018-05-26T00:26:22.023Z,1005.99
2018-05-26T00:27:22.040Z,1005.99
2018-05-26T00:28:22.055Z,1005.99
2018-05-26T00:29:22.076Z,1005.95
2018-05-26T00:30:22.095Z,1005.99
2018-05-26T00:31:22.125Z,1005.97
2018-05-26T00:32:22.153Z,1005.96
2018-05-26T00:33:22.163Z,1006.04
2018-05-26T00:34:22.184Z,1006.00
2018-05-26T00:35:22.207Z,1006.03
2018-05-26T00:36:22.224Z,1006.05
2018-05-26T00:37:22.243Z,1006.05
2018-05-26T00:38:22.274Z,1006.01
2018-05-26T00:39:22.290Z,1006.04
2018-05-26T00:40:22.311Z,1006.04
2018-05-26T00:41:22.332Z,1006.07
2018-05-26T00:42:22.352Z,1006.08
2018-05-26T00:43:22.396Z,1006.10
2018-05-26T00:44:22.391Z,1006.09
2018-05-26T00:45:22.411Z,1006.10
2018-05-26T00:46:22.446Z,1006.08
2018-05-26T00:47:22.451Z,1006.05
2018-05-26T00:48:22.471Z,1006.03
2018-05-26T00:49:22.506Z,1006.01
2018-05-26T00:50:22.514Z,1006.07
2018-05-26T00:51:22.543Z,1006.09
2018-05-26T00:52:22.560Z,1006.09
2018-05-26T00:53:22.574Z,1006.09
2018-05-26T00:54:22.601Z,1006.11
2018-05-26T00:55:22.618Z,1006.11
2018-05-26T00:56:22.645Z,1006.16
2018-05-26T00:57:22.657Z,1006.12
2018-05-26T00:58:22.679Z,1006.17
2018-05-26T00:59:22.698Z,1006.16
2018-05-26T01:00:22.720Z,1006.17
2018-05-26T01:01:22.756Z,1006.16
2018-05-26T01:02:22.762Z,1006.19
2018-05-26T01:03:22.792Z,1006.17
2018-05-26T01:04:22.801Z,1006.22
2018-05-26T01:05:22.820Z,1006.21
2018-05-26T01:06:22.844Z,1006.26
2018-05-26T01:07:22.870Z,1006.26
2018-05-26T01:08:22.886Z,1006.25
2018-05-26T01:09:22.912Z,1006.26
2018-05-26T01:10:22.935Z,1006.26
2018-05-26T01:11:22.947Z,1006.26
2018-05-26T01:12:22.985Z,1006.27
2018-05-26T01:13:22.988Z,1006.28
2018-05-26T01:14:23.012Z,1006.32
2018-05-26T01:15:23.038Z,1006.24
2018-05-26T01:16:23.048Z,1006.24
2018-05-26T01:17:23.068Z,1006.26
2018-05-26T01:18:23.097Z,1006.26
2018-05-26T01:19:23.109Z,1006.28
2018-05-26T01:20:23.134Z,1006.25
2018-05-26T01:21:23.155Z,1006.28
2018-05-26T01:22:23.170Z,1006.30
2018-05-26T01:23:23.191Z,1006.28
2018-05-26T01:24:23.219Z,1006.29
2018-05-26T01:25:23.240Z,1006.28
2018-05-26T01:26:23.268Z,1006.30
2018-05-26T01:27:23.275Z,1006.35
2018-05-26T01:28:23.296Z,1006.34
2018-05-26T01:29:23.319Z,1006.39
2018-05-26T01:30:23.342Z,1006.38
2018-05-26T01:31:23.356Z,1006.38
2018-05-26T01:32:23.378Z,1006.42
2018-05-26T01:33:23.395Z,1006.42
2018-05-26T01:34:23.420Z,1006.41
2018-05-26T01:35:23.436Z,1006.41
2018-05-26T01:36:23.464Z,1006.43
2018-05-26T01:37:23.478Z,1006.41
2018-05-26T01:38:23.497Z,1006.45
2018-05-26T01:39:23.522Z,1006.44
2018-05-26T01:40:23.548Z,1006.43
2018-05-26T01:41:23.570Z,1006.46
2018-05-26T01:42:23.588Z,1006.43
2018-05-26T01:43:23.600Z,1006.49
2018-05-26T01:44:23.613Z,1006.45
2018-05-26T01:45:23.636Z,1006.44
2018-05-26T01:46:23.662Z,1006.44
2018-05-26T01:47:23.677Z,1006.44
2018-05-26T01:48:23.704Z,1006.39
2018-05-26T01:49:23.717Z,1006.38
2018-05-26T01:50:23.745Z,1006.38
2018-05-26T01:51:23.761Z,1006.38
2018-05-26T01:52:23.795Z,1006.41
2018-05-26T01:53:23.802Z,1006.39
2018-05-26T01:54:23.823Z,1006.37
2018-05-26T01:55:23.850Z,1006.35
2018-05-26T01:56:23.858Z,1006.40
2018-05-26T01:57:23.905Z,1006.38
2018-05-26T01:58:23.915Z,1006.38
2018-05-26T01:59:23.925Z,1006.37
2018-05-26T02:00:23.940Z,1006.37
2018-05-26T02:01:23.965Z,1006.37
2018-05-26T02:02:23.979Z,1006.33
2018-05-26T02:03:24.013Z,1006.35
2018-05-26T02:04:24.027Z,1006.33
2018-05-26T02:05:24.047Z,1006.31
2018-05-26T02:06:24.061Z,1006.28
2018-05-26T02:07:24.092Z,1006.30
2018-05-26T02:08:24.108Z,1006.28
2018-05-26T02:09:24.126Z,1006.27
2018-05-26T02:10:24.144Z,1006.32
2018-05-26T02:11:24.169Z,1006.33
2018-05-26T02:12:24.199Z,1006.34
2018-05-26T02:13:24.206Z,1006.31
2018-05-26T02:14:24.227Z,1006.31
2018-05-26T02:15:24.263Z,1006.31
2018-05-26T02:16:24.269Z,1006.28
2018-05-26T02:17:24.281Z,1006.31
2018-05-26T02:18:24.306Z,1006.27
2018-05-26T02:19:24.329Z,1006.29
2018-05-26T02:20:24.346Z,1006.29
2018-05-26T02:21:24.363Z,1006.26
2018-05-26T02:22:24.389Z,1006.26
2018-05-26T02:23:24.403Z,1006.24
2018-05-26T02:24:24.452Z,1006.26
2018-05-26T02:25:24.441Z,1006.26
2018-05-26T02:26:24.475Z,1006.26
2018-05-26T02:27:24.483Z,1006.25
2018-05-26T02:28:24.504Z,1006.29
2018-05-26T02:29:24.534Z,1006.23
2018-05-26T02:30:24.549Z,1006.29
2018-05-26T02:31:24.573Z,1006.30
2018-05-26T02:32:24.584Z,1006.26
2018-05-26T02:33:24.607Z,1006.30
2018-05-26T02:34:24.623Z,1006.25
2018-05-26T02:35:24.651Z,1006.28
2018-05-26T02:36:24.675Z,1006.31
2018-05-26T02:37:24.694Z,1006.27
2018-05-26T02:38:24.704Z,1006.30
2018-05-26T02:39:24.728Z,1006.30
2018-05-26T02:40:24.751Z,1006.29
2018-05-26T02:41:24.766Z,1006.30
2018-05-26T02:42:24.790Z,1006.30
2018-05-26T02:43:24.805Z,1006.30
2018-05-26T02:44:24.830Z,1006.27
2018-05-26T02:45:24.851Z,1006.27
2018-05-26T02:46:24.872Z,1006.24
2018-05-26T02:47:24.882Z,1006.26
2018-05-26T02:48:24.905Z,1006.26
2018-05-26T02:49:24.925Z,1006.27
2018-05-26T02:50:24.943Z,1006.28
2018-05-26T02:51:24.964Z,1006.26
2018-05-26T02:52:24.982Z,1006.26
2018-05-26T02:53:25.007Z,1006.25
2018-05-26T02:54:25.023Z,1006.23
2018-05-26T02:55:25.046Z,1006.22
2018-05-26T02:56:25.069Z,1006.25
2018-05-26T02:57:25.083Z,1006.25
2018-05-26T02:58:25.123Z,1006.23
2018-05-26T02:59:25.127Z,1006.27
2018-05-26T03:00:25.145Z,1006.23
2018-05-26T03:01:25.165Z,1006.28
2018-05-26T03:02:25.183Z,1006.29
2018-05-26T03:03:25.208Z,1006.23
2018-05-26T03:04:25.221Z,1006.24
2018-05-26T03:05:25.253Z,1006.25
2018-05-26T03:06:25.261Z,1006.25
2018-05-26T03:07:25.281Z,1006.24
2018-05-26T03:08:25.307Z,1006.21
2018-05-26T03:09:25.323Z,1006.22
2018-05-26T03:10:25.345Z,1006.25
2018-05-26T03:11:25.370Z,1006.22
2018-05-26T03:12:25.387Z,1006.21
2018-05-26T03:13:25.407Z,1006.23
2018-05-26T03:14:25.443Z,1006.22
2018-05-26T03:15:25.450Z,1006.18
2018-05-26T03:16:25.466Z,1006.21
2018-05-26T03:17:25.484Z,1006.21
2018-05-26T03:18:25.509Z,1006.19
2018-05-26T03:19:25.573Z,1006.20
2018-05-26T03:20:25.537Z,1006.18
2018-05-26T03:21:25.556Z,1006.20
2018-05-26T03:22:25.582Z,1006.21
2018-05-26T03:23:25.601Z,1006.23
2018-05-26T03:24:25.618Z,1006.21
2018-05-26T03:25:25.645Z,1006.22
2018-05-26T03:26:25.660Z,1006.23
2018-05-26T03:27:25.684Z,1006.25
2018-05-26T03:28:25.699Z,1006.28
2018-05-26T03:29:25.719Z,1006.25
2018-05-26T03:30:25.739Z,1006.28
2018-05-26T03:31:25.758Z,1006.27
2018-05-26T03:32:25.776Z,1006.28
2018-05-26T03:33:25.796Z,1006.28
2018-05-26T03:34:25.823Z,1006.26
2018-05-26T03:35:25.841Z,1006.32
2018-05-26T03:36:25.886Z,1006.27
2018-05-26T03:37:25.873Z,1006.26
2018-05-26T03:38:25.891Z,1006.30
2018-05-26T03:39:25.932Z,1006.26
2018-05-26T03:40:25.935Z,1006.29
2018-05-26T03:41:25.953Z,1006.31
2018-05-26T03:42:25.975Z,1006.33
2018-05-26T03:43:25.992Z,1006.33
2018-05-26T03:44:26.021Z,1006.30
2018-05-26T03:45:26.029Z,1006.31
2018-05-26T03:46:26.058Z,1006.33
2018-05-26T03:47:26.069Z,1006.33
2018-05-26T03:48:26.093Z,1006.36
2018-05-26T03:49:26.109Z,1006.33
2018-05-26T03:50:26.125Z,1006.35
2018-05-26T03:51:26.152Z,1006.31
2018-05-26T03:52:26.168Z,1006.35
2018-05-26T03:53:26.190Z,1006.36
2018-05-26T03:54:26.208Z,1006.38
2018-05-26T03:55:26.226Z,1006.34
2018-05-26T03:56:26.264Z,1006.35
2018-05-26T03:57:26.270Z,1006.37
2018-05-26T03:58:26.287Z,1006.39
2018-05-26T03:59:26.303Z,1006.36
2018-05-26T04:00:26.341Z,1006.41
2018-05-26T04:01:26.349Z,1006.38
2018-05-26T04:02:26.372Z,1006.40
2018-05-26T04:03:26.391Z,1006.36
2018-05-26T04:04:26.406Z,1006.40
2018-05-26T04:05:26.423Z,1006.36
2018-05-26T04:06:26.450Z,1006.41
2018-05-26T04:07:26.469Z,1006.36
2018-05-26T04:08:26.482Z,1006.40
2018-05-26T04:09:26.503Z,1006.41
2018-05-26T04:10:26.532Z,1006.45
2018-05-26T04:11:26.606Z,1006.42
2018-05-26T04:12:26.563Z,1006.43
2018-05-26T04:13:26.596Z,1006.46
2018-05-26T04:14:26.607Z,1006.46
2018-05-26T04:15:26.624Z,1006.50
2018-05-26T04:16:26.647Z,1006.49
2018-05-26T04:17:26.659Z,1006.48
2018-05-26T04:18:26.687Z,1006.53
2018-05-26T04:19:26.704Z,1006.54
2018-05-26T04:20:26.733Z,1006.54
2018-05-26T04:21:26.740Z,1006.57
2018-05-26T04:22:26.766Z,1006.54
2018-05-26T04:23:26.783Z,1006.56
2018-05-26T04:24:26.801Z,1006.61
2018-05-26T04:25:26.823Z,1006.63
2018-05-26T04:26:26.841Z,1006.63
2018-05-26T04:27:26.860Z,1006.62
2018-05-26T04:28:26.889Z,1006.64
2018-05-26T04:29:26.919Z,1006.70
2018-05-26T04:30:26.925Z,1006.71
2018-05-26T04:31:26.948Z,1006.75
2018-05-26T04:32:26.972Z,1006.75
2018-05-26T04:33:26.981Z,1006.80
2018-05-26T04:34:27.004Z,1006.81
2018-05-26T04:35:27.060Z,1006.80
2018-05-26T04:36:27.049Z,1006.85
2018-05-26T04:37:27.088Z,1006.83
2018-05-26T04:38:27.099Z,1006.84
2018-05-26T04:39:27.113Z,1006.85
2018-05-26T04:40:27.130Z,1006.88
2018-05-26T04:41:27.150Z,1006.92
2018-05-26T04:42:27.187Z,1006.92
2018-05-26T04:43:27.203Z,1006.94
2018-05-26T04:44:27.212Z,1006.95
2018-05-26T04:45:27.225Z,1006.98
2018-05-26T04:46:27.252Z,1007.02
2018-05-26T04:47:27.262Z,1007.03
2018-05-26T04:48:27.281Z,1007.07
2018-05-26T04:49:27.309Z,1007.18
2018-05-26T04:50:27.323Z,1007.33
2018-05-26T04:51:27.344Z,1007.60
2018-05-26T04:52:27.367Z,1007.67
2018-05-26T04:53:27.386Z,1007.65
2018-05-26T04:54:27.418Z,1007.71
2018-05-26T04:55:27.429Z,1007.76
2018-05-26T04:56:27.450Z,1007.82
2018-05-26T04:57:27.479Z,1007.83
2018-05-26T04:58:27.489Z,1007.88
2018-05-26T04:59:27.514Z,1007.85
2018-05-26T05:00:27.545Z,1007.87
2018-05-26T05:01:27.563Z,1007.91
2018-05-26T05:02:27.590Z,1007.92
2018-05-26T05:03:27.608Z,1007.95
2018-05-26T05:04:27.635Z,1007.93
2018-05-26T05:05:27.657Z,1007.91
2018-05-26T05:06:27.679Z,1007.96
2018-05-26T05:07:27.708Z,1007.97
2018-05-26T05:08:27.736Z,1007.95
2018-05-26T05:09:27.759Z,1007.96
2018-05-26T05:10:27.780Z,1007.98
2018-05-26T05:11:27.827Z,1008.01
2018-05-26T05:12:27.828Z,1008.07
2018-05-26T05:13:27.853Z,1008.07
2018-05-26T05:14:27.884Z,1008.10
2018-05-26T05:15:27.917Z,1008.18
2018-05-26T05:16:27.936Z,1008.19
2018-05-26T05:17:27.962Z,1008.22
2018-05-26T05:18:28.007Z,1008.21
2018-05-26T05:19:28.015Z,1008.22
2018-05-26T05:20:28.039Z,1008.29
2018-05-26T05:21:28.067Z,1008.27
2018-05-26T05:22:28.091Z,1008.31
2018-05-26T05:23:28.116Z,1008.35
2018-05-26T05:24:28.150Z,1008.38
2018-05-26T05:25:28.178Z,1008.36
2018-05-26T05:26:28.214Z,1008.41
2018-05-26T05:27:28.231Z,1008.43
2018-05-26T05:28:28.258Z,1008.41
2018-05-26T05:29:28.281Z,1008.41
2018-05-26T05:30:28.311Z,1008.46
2018-05-26T05:31:28.347Z,1008.48
2018-05-26T05:32:28.389Z,1008.55
2018-05-26T05:33:28.392Z,1008.65
2018-05-26T05:34:28.437Z,1008.67
2018-05-26T05:35:28.450Z,1008.71
2018-05-26T05:36:28.481Z,1008.77
2018-05-26T05:37:28.513Z,1008.73
2018-05-26T05:38:28.534Z,1008.73
2018-05-26T05:39:28.570Z,1008.80
2018-05-26T05:40:28.599Z,1008.81
2018-05-26T05:41:28.633Z,1008.80
2018-05-26T05:42:28.655Z,1008.87
2018-05-26T05:43:28.732Z,1008.89
2018-05-26T05:44:28.707Z,1008.95
2018-05-26T05:45:28.742Z,1009.02
2018-05-26T05:46:28.767Z,1009.08
2018-05-26T05:47:28.793Z,1009.16
2018-05-26T05:48:28.829Z,1009.15
2018-05-26T05:49:28.858Z,1009.19
2018-05-26T05:50:28.892Z,1009.25
2018-05-26T05:51:28.911Z,1009.23
2018-05-26T05:52:28.940Z,1009.22
2018-05-26T05:53:28.974Z,1009.37
2018-05-26T05:54:29.026Z,1009.45
2018-05-26T05:55:29.030Z,1009.48
2018-05-26T05:56:29.092Z,1009.49
2018-05-26T05:57:29.095Z,1009.56
2018-05-26T05:58:29.138Z,1009.64
2018-05-26T05:59:29.159Z,1009.63
2018-05-26T06:00:29.174Z,1009.61
2018-05-26T06:01:29.208Z,1009.59
2018-05-26T06:02:29.238Z,1009.68
2018-05-26T06:03:29.265Z,1009.87
2018-05-26T06:04:29.295Z,1010.06
2018-05-26T06:05:29.329Z,1010.18
2018-05-26T06:06:29.358Z,1010.27
2018-05-26T06:07:29.384Z,1010.35
2018-05-26T06:08:29.413Z,1010.40
2018-05-26T06:09:29.450Z,1010.54
2018-05-26T06:10:29.472Z,1010.57
2018-05-26T06:11:29.505Z,1010.81
2018-05-26T06:12:29.534Z,1011.31
2018-05-26T06:13:29.564Z,1011.48
2018-05-26T06:14:29.616Z,1011.61
2018-05-26T06:15:29.646Z,1011.82
2018-05-26T06:16:29.672Z,1011.78
2018-05-26T06:17:29.686Z,1011.88
2018-05-26T06:18:29.724Z,1012.28
2018-05-26T06:19:29.746Z,1012.64
2018-05-26T06:20:29.775Z,1012.48
2018-05-26T06:21:29.808Z,1011.90
2018-05-26T06:22:29.840Z,1012.11
2018-05-26T06:23:29.872Z,1012.98
2018-05-26T06:24:29.934Z,1013.36
2018-05-26T06:25:29.934Z,1013.52
2018-05-26T06:26:30.017Z,1013.48
2018-05-26T06:27:29.993Z,1013.49
2018-05-26T06:28:30.028Z,1013.65
2018-05-26T06:29:30.054Z,1014.02
2018-05-26T06:30:30.086Z,1013.92
2018-05-26T06:31:30.123Z,1014.17
2018-05-26T06:32:30.147Z,1014.61
2018-05-26T06:33:30.171Z,1014.70
2018-05-26T06:34:30.203Z,1015.00
2018-05-26T06:35:30.234Z,1015.45
2018-05-26T06:36:30.269Z,1015.23
2018-05-26T06:37:30.299Z,1015.21
2018-05-26T06:38:30.325Z,1015.52
2018-05-26T06:39:30.356Z,1015.61
2018-05-26T06:40:30.390Z,1016.03
2018-05-26T06:41:30.417Z,1016.46
2018-05-26T06:42:30.449Z,1016.52
2018-05-26T06:43:30.481Z,1016.64
2018-05-26T06:44:30.510Z,1017.10
2018-05-26T06:45:30.540Z,1017.52
2018-05-26T06:46:30.572Z,1017.03
2018-05-26T06:47:30.610Z,1016.91
2018-05-26T06:48:30.644Z,1016.82
2018-05-26T06:49:30.669Z,1016.98
2018-05-26T06:50:30.701Z,1017.65
2018-05-26T06:51:30.741Z,1018.47
2018-05-26T06:52:30.770Z,1018.95
2018-05-26T06:53:30.810Z,1018.93
2018-05-26T06:54:30.821Z,1018.76
2018-05-26T06:55:30.856Z,1019.03
2018-05-26T06:56:30.888Z,1019.84
2018-05-26T06:57:30.915Z,1019.83
2018-05-26T06:58:30.946Z,1019.51
2018-05-26T06:59:30.988Z,1019.77
2018-05-26T07:00:31.010Z,1020.07
2018-05-26T07:01:31.050Z,1020.47
2018-05-26T07:02:31.077Z,1020.84
2018-05-26T07:03:31.106Z,1020.58
2018-05-26T07:04:31.134Z,1019.91
2018-05-26T07:05:31.170Z,1019.82
2018-05-26T07:06:31.202Z,1020.16
2018-05-26T07:07:31.242Z,1020.73
2018-05-26T07:08:31.266Z,1019.43
2018-05-26T07:09:31.296Z,1021.52
2018-05-26T07:10:31.331Z,1021.76
2018-05-26T07:11:31.353Z,1021.58
2018-05-26T07:12:31.394Z,1021.33
2018-05-26T07:13:31.441Z,1021.35
2018-05-26T07:14:31.453Z,1020.86
2018-05-26T07:15:31.480Z,1020.92
2018-05-26T07:16:31.516Z,1021.53
2018-05-26T07:17:31.548Z,1021.69
2018-05-26T07:18:31.572Z,1021.34
2018-05-26T07:19:31.609Z,1021.23
2018-05-26T07:20:31.636Z,1021.22
2018-05-26T07:21:31.669Z,1021.61
2018-05-26T07:22:31.697Z,1021.63
2018-05-26T07:23:31.729Z,1021.31
2018-05-26T07:24:31.758Z,1021.62
2018-05-26T07:25:31.790Z,1022.11
2018-05-26T07:26:31.837Z,1022.33
2018-05-26T07:27:31.860Z,1022.41
2018-05-26T07:28:31.912Z,1022.96
2018-05-26T07:29:31.961Z,1023.87
2018-05-26T07:30:31.974Z,1022.99
2018-05-26T07:31:31.982Z,1022.02
2018-05-26T07:32:32.009Z,1022.37
2018-05-26T07:33:32.049Z,1023.04
2018-05-26T07:34:32.069Z,1022.69
2018-05-26T07:35:32.105Z,1021.34
2018-05-26T07:36:32.133Z,1022.77
2018-05-26T07:37:32.186Z,1024.05
2018-05-26T07:38:32.208Z,1024.23
2018-05-26T07:39:32.258Z,1024.15
2018-05-26T07:40:32.264Z,1025.26
2018-05-26T07:41:32.292Z,1025.44
2018-05-26T07:42:32.341Z,1024.08
2018-05-26T07:43:32.367Z,1024.08
2018-05-26T07:44:32.388Z,1023.61
2018-05-26T07:45:32.423Z,1023.29
2018-05-26T07:46:32.451Z,1024.21
2018-05-26T07:47:32.500Z,1024.23
2018-05-26T07:48:32.515Z,1023.26
2018-05-26T07:49:32.552Z,1023.62
2018-05-26T07:50:32.570Z,1024.35
2018-05-26T07:51:32.604Z,1023.54
2018-05-26T07:52:32.637Z,1023.25
2018-05-26T07:53:32.669Z,1024.15
2018-05-26T07:54:32.704Z,1024.81
2018-05-26T07:55:32.747Z,1025.99
2018-05-26T07:56:32.761Z,1025.81
2018-05-26T07:57:32.800Z,1024.67
2018-05-26T07:58:32.871Z,1025.67
2018-05-26T07:59:32.855Z,1025.20
2018-05-26T08:00:32.917Z,1022.94
2018-05-26T08:01:32.932Z,1022.94
2018-05-26T08:02:32.948Z,1023.76
2018-05-26T08:03:32.984Z,1026.09
2018-05-26T08:04:33.035Z,1029.15
2018-05-26T08:05:33.058Z,1027.10
2018-05-26T08:06:33.075Z,1024.63
2018-05-26T08:07:33.128Z,1025.87
2018-05-26T08:08:33.146Z,1025.27
2018-05-26T08:09:33.181Z,1024.49
2018-05-26T08:10:33.202Z,1023.20
2018-05-26T08:11:33.235Z,1021.87
2018-05-26T08:12:33.275Z,1021.95
2018-05-26T08:13:33.298Z,1024.79
2018-05-26T08:14:33.330Z,1025.70
2018-05-26T08:15:33.364Z,1024.27
2018-05-26T08:16:33.393Z,1025.38
2018-05-26T08:17:33.423Z,1026.42
2018-05-26T08:18:33.460Z,1026.76
2018-05-26T08:19:33.487Z,1027.18
2018-05-26T08:20:33.533Z,1026.81
2018-05-26T08:21:33.546Z,1025.91
2018-05-26T08:22:33.574Z,1025.47
2018-05-26T08:23:33.610Z,1025.54
2018-05-26T08:24:33.643Z,1026.20
2018-05-26T08:25:33.670Z,1025.40
2018-05-26T08:26:33.701Z,1025.76
2018-05-26T08:27:33.730Z,1024.51
2018-05-26T08:28:33.755Z,1021.99
2018-05-26T08:29:33.790Z,1013.65
2018-05-26T08:30:33.864Z,1008.09
2018-05-26T08:31:33.852Z,1008.01
2018-05-26T08:32:33.872Z,1007.89
2018-05-26T08:33:33.899Z,1007.89
2018-05-26T08:34:33.933Z,1007.89
2018-05-26T08:35:33.955Z,1007.86
2018-05-26T08:36:33.983Z,1007.87
2018-05-26T08:37:34.018Z,1007.83
2018-05-26T08:38:34.050Z,1007.85
2018-05-26T08:39:34.073Z,1007.89
2018-05-26T08:40:34.116Z,1007.85
2018-05-26T08:41:34.128Z,1007.85
2018-05-26T08:42:34.154Z,1007.85
2018-05-26T08:43:34.183Z,1007.84
2018-05-26T08:44:34.212Z,1007.86
2018-05-26T08:45:34.245Z,1007.85
2018-05-26T08:46:34.263Z,1007.89
2018-05-26T08:47:34.290Z,1007.87
2018-05-26T08:48:34.312Z,1007.89
2018-05-26T08:49:34.356Z,1007.87
2018-05-26T08:50:34.370Z,1007.85
2018-05-26T08:51:34.398Z,1007.79
2018-05-26T08:52:34.425Z,1007.83
2018-05-26T08:53:34.444Z,1007.82
2018-05-26T08:54:34.489Z,1007.79
2018-05-26T08:55:34.499Z,1007.82
2018-05-26T08:56:34.529Z,1007.81
2018-05-26T08:57:34.554Z,1007.81
2018-05-26T08:58:34.584Z,1007.82
2018-05-26T08:59:34.610Z,1007.83
2018-05-26T09:00:34.635Z,1007.88
2018-05-26T09:01:34.659Z,1007.83
2018-05-26T09:02:34.682Z,1007.85
2018-05-26T09:03:34.721Z,1007.84
2018-05-26T09:04:34.743Z,1007.84
2018-05-26T09:05:34.823Z,1007.88
2018-05-26T09:06:34.789Z,1007.89
2018-05-26T09:07:34.818Z,1007.85
2018-05-26T09:08:34.852Z,1007.83
2018-05-26T09:09:34.878Z,1007.86
2018-05-26T09:10:34.897Z,1007.79
2018-05-26T09:11:34.925Z,1007.84
2018-05-26T09:12:34.949Z,1007.80
2018-05-26T09:13:34.975Z,1007.82
2018-05-26T09:14:35.001Z,1007.82
2018-05-26T09:15:35.035Z,1007.81
2018-05-26T09:16:35.047Z,1007.79
2018-05-26T09:17:35.077Z,1007.79
2018-05-26T09:18:35.114Z,1007.78
2018-05-26T09:19:35.125Z,1007.82
2018-05-26T09:20:35.168Z,1007.83
2018-05-26T09:21:35.191Z,1007.77
2018-05-26T09:22:35.202Z,1007.76
2018-05-26T09:23:35.234Z,1007.78
2018-05-26T09:24:35.253Z,1007.75
2018-05-26T09:25:35.332Z,1007.77
2018-05-26T09:26:35.305Z,1007.75
2018-05-26T09:27:35.334Z,1007.76
2018-05-26T09:28:35.366Z,1007.73
2018-05-26T09:29:35.394Z,1007.74
2018-05-26T09:30:35.424Z,1007.74
2018-05-26T09:31:35.465Z,1007.75
2018-05-26T09:32:35.467Z,1007.73
2018-05-26T09:33:35.485Z,1007.75
2018-05-26T09:34:35.533Z,1007.71
2018-05-26T09:35:35.550Z,1007.76
2018-05-26T09:36:35.564Z,1007.76
2018-05-26T09:37:35.597Z,1007.78
2018-05-26T09:38:35.621Z,1007.77
2018-05-26T09:39:35.696Z,1007.72
2018-05-26T09:40:35.673Z,1007.77
2018-05-26T09:41:35.687Z,1007.74
2018-05-26T09:42:35.722Z,1007.71
2018-05-26T09:43:35.765Z,1007.70
2018-05-26T09:44:35.781Z,1007.68
2018-05-26T09:45:35.796Z,1007.65
2018-05-26T09:46:35.825Z,1007.63
2018-05-26T09:47:35.848Z,1007.61
2018-05-26T09:48:35.889Z,1007.63
2018-05-26T09:49:35.905Z,1007.67
2018-05-26T09:50:35.927Z,1007.66
2018-05-26T09:51:35.949Z,1007.66
2018-05-26T09:52:35.975Z,1007.68
2018-05-26T09:53:36.004Z,1007.70
2018-05-26T09:54:36.046Z,1007.68
2018-05-26T09:55:36.059Z,1007.67
2018-05-26T09:56:36.438Z,1007.71
2018-05-26T09:57:36.104Z,1007.65
2018-05-26T09:58:36.130Z,1007.71
2018-05-26T09:59:36.155Z,1007.67
2018-05-26T10:00:36.178Z,1007.72
2018-05-26T10:01:36.212Z,1007.68
2018-05-26T10:02:36.230Z,1007.62
2018-05-26T10:03:36.263Z,1007.61
2018-05-26T10:04:36.282Z,1007.68
2018-05-26T10:05:36.308Z,1007.74
2018-05-26T10:06:36.332Z,1007.73
2018-05-26T10:07:36.358Z,1007.72
2018-05-26T10:08:36.388Z,1007.75
2018-05-26T10:09:36.413Z,1007.71
2018-05-26T10:10:36.433Z,1007.71
2018-05-26T10:11:36.460Z,1007.67
2018-05-26T10:12:36.491Z,1007.65
2018-05-26T10:13:36.523Z,1007.79
2018-05-26T10:14:36.542Z,1007.71
2018-05-26T10:15:36.565Z,1007.80
2018-05-26T10:16:36.583Z,1007.75
2018-05-26T10:17:36.638Z,1007.82
2018-05-26T10:18:36.650Z,1007.84
2018-05-26T10:19:36.668Z,1007.74
2018-05-26T10:20:36.685Z,1007.73
2018-05-26T10:21:36.710Z,1007.65
2018-05-26T10:22:36.739Z,1007.67
2018-05-26T10:23:36.760Z,1007.59
2018-05-26T10:24:36.785Z,1007.54
2018-05-26T10:25:36.820Z,1007.59
2018-05-26T10:26:36.848Z,1007.71
2018-05-26T10:27:36.863Z,1007.66
2018-05-26T10:28:36.898Z,1007.57
2018-05-26T10:29:36.922Z,1007.55
2018-05-26T10:30:36.943Z,1007.64
2018-05-26T10:31:36.963Z,1007.60
2018-05-26T10:32:37.009Z,1007.54
2018-05-26T10:33:37.019Z,1007.53
2018-05-26T10:34:37.048Z,1007.54
2018-05-26T10:35:37.085Z,1007.60
2018-05-26T10:36:37.094Z,1007.66
2018-05-26T10:37:37.111Z,1007.73
2018-05-26T10:38:37.142Z,1007.76
2018-05-26T10:39:37.171Z,1007.83
2018-05-26T10:40:37.191Z,1007.85
2018-05-26T10:41:37.219Z,1007.86
2018-05-26T10:42:37.236Z,1007.84
2018-05-26T10:43:37.264Z,1007.83
2018-05-26T10:44:37.285Z,1007.78
2018-05-26T10:45:37.322Z,1007.78
2018-05-26T10:46:37.342Z,1007.75
2018-05-26T10:47:37.362Z,1007.72
2018-05-26T10:48:37.395Z,1007.72
2018-05-26T10:49:37.411Z,1007.72
2018-05-26T10:50:37.462Z,1007.69
2018-05-26T10:51:37.473Z,1007.71
2018-05-26T10:52:37.502Z,1007.62
2018-05-26T10:53:37.519Z,1007.67
2018-05-26T10:54:37.641Z,1007.61
2018-05-26T10:55:37.559Z,1007.62
2018-05-26T10:56:37.587Z,1007.67
2018-05-26T10:57:37.617Z,1007.61
2018-05-26T10:58:37.639Z,1007.66
2018-05-26T10:59:37.659Z,1007.55
2018-05-26T11:00:37.684Z,1007.62
2018-05-26T11:01:37.738Z,1007.69
2018-05-26T11:02:37.752Z,1007.69
2018-05-26T11:03:37.764Z,1007.66
2018-05-26T11:04:37.799Z,1007.60
2018-05-26T11:05:37.817Z,1007.61
2018-05-26T11:06:37.841Z,1007.67
2018-05-26T11:07:37.862Z,1007.62
2018-05-26T11:08:37.885Z,1007.67
2018-05-26T11:09:37.909Z,1007.68
2018-05-26T11:10:37.938Z,1007.60
2018-05-26T11:11:37.962Z,1007.58
2018-05-26T11:12:37.985Z,1007.62
2018-05-26T11:13:38.013Z,1007.66
2018-05-26T11:14:38.135Z,1007.69
2018-05-26T11:15:38.095Z,1007.79
2018-05-26T11:16:38.086Z,1007.74
2018-05-26T11:17:38.245Z,1007.68
2018-05-26T11:18:38.133Z,1007.68
2018-05-26T11:19:38.161Z,1007.64
2018-05-26T11:20:38.188Z,1007.68
2018-05-26T11:21:38.209Z,1007.69
2018-05-26T11:22:38.251Z,1007.66
2018-05-26T11:23:38.314Z,1007.64
2018-05-26T11:24:38.381Z,1007.62
2018-05-26T11:25:38.322Z,1007.63
2018-05-26T11:26:38.369Z,1007.60
2018-05-26T11:27:38.371Z,1007.64
2018-05-26T11:28:38.388Z,1007.68
2018-05-26T11:29:38.426Z,1007.63
2018-05-26T11:30:38.439Z,1007.62
2018-05-26T11:31:38.473Z,1007.65
2018-05-26T11:32:38.487Z,1007.61
2018-05-26T11:33:38.514Z,1007.62
2018-05-26T11:34:38.544Z,1007.61
2018-05-26T11:35:38.573Z,1007.55
2018-05-26T11:36:38.588Z,1007.53
2018-05-26T11:37:38.615Z,1007.51
2018-05-26T11:38:38.643Z,1007.43
2018-05-26T11:39:38.676Z,1007.46
2018-05-26T11:40:38.740Z,1007.55
2018-05-26T11:41:38.729Z,1007.52
2018-05-26T11:42:38.739Z,1007.58
2018-05-26T11:43:38.824Z,1007.56
2018-05-26T11:44:38.794Z,1007.50
2018-05-26T11:45:38.818Z,1007.55
2018-05-26T11:46:38.849Z,1007.55
2018-05-26T11:47:38.874Z,1007.59
2018-05-26T11:48:38.894Z,1007.58
2018-05-26T11:49:38.916Z,1007.54
2018-05-26T11:50:38.955Z,1007.51
2018-05-26T11:51:39.012Z,1007.51
2018-05-26T11:52:39.034Z,1007.42
2018-05-26T11:53:39.037Z,1007.40
2018-05-26T11:54:39.106Z,1007.39
2018-05-26T11:55:39.067Z,1007.45
2018-05-26T11:56:39.100Z,1007.37
2018-05-26T11:57:39.129Z,1007.30
2018-05-26T11:58:39.158Z,1007.32
2018-05-26T11:59:39.180Z,1007.46
2018-05-26T12:00:39.203Z,1007.38
2018-05-26T12:01:39.232Z,1007.37
2018-05-26T12:02:39.246Z,1007.41
2018-05-26T12:03:39.302Z,1007.42
2018-05-26T12:04:39.358Z,1007.42
2018-05-26T12:05:39.328Z,1007.43